Terminal Aerodrome Forecast
Issued by NWS Sterling, VA

Current Version | Previous Version | Graphics & Text | Print | Product List | Glossary On
Versions: 1 2 3 4 5 6 7 8 9 10 11 12 13 14 15 16 17 18 19 20 21 22 23 24 25 26 27 28 29
105
FTUS41 KLWX 221120
TAFIAD
TAF
KIAD 221120Z 2212/2318 35005KT 5SM -DZ BR OVC008
     FM221400 35006KT P6SM -RA OVC008
     FM230100 34005KT 3SM -SHRA BR OVC025
     FM230400 34004KT 3SM BR OVC025
     FM231300 34006KT P6SM BKN060
     FM231600 35007KT P6SM -SHRA BKN060=

USA.gov is the U.S. government's official web portal to all federal, state and local government web resources and services.